New Yoshino — JG5527 — position and weather

sailwx.info

Track history (hours):
 
Tides and Currents Weather Stations Pressure Air Temp Water Temp Dewpoint Dewpoint Depression Visibility Wind Speed Wind Dir Waves Ship Positions

New Yoshino

Last reported at 2014-Aug-31 14:10 UTC. Time now 2014-Sep-02 23:57 UTC.
Position N 34°52' E 140°01'.

Length 102 m; draft 4.8 m.

Type: Tanker. MMSI: 431300724.

Date/timePositionNaut miles runAvg speedWind from/ knotsBaromVisibWave heightAir tempDewpointWater temp
2014-Aug-31 14:10N 34°52' E 140°01'812.5
2014-Aug-31 13:30N 34°56' E 140°09'2613.4
2014-Aug-31 11:32N 35°14' E 140°33'1514.7
2014-Aug-31 10:30N 35°26' E 140°44'1415.0
2014-Aug-31 09:33N 35°37' E 140°55'  
2014-Aug-26 12:18N 35°33' E 140°51'911.8
2014-Aug-26 11:34N 35°26' E 140°45'3812.7
2014-Aug-26 08:33N 34°58' E 140°13'1613.9
2014-Aug-26 07:25N 34°49' E 139°57'1613.5
2014-Aug-26 06:15N 34°43' E 139°40'23511.2
2014-Aug-25 09:19N 33°57' E 135°01'912.0
2014-Aug-25 08:33N 34°06' E 135°03'4 0.4
2014-Aug-24 23:29N 34°08' E 135°07'0 0.0
2014-Aug-24 22:20N 34°08' E 135°07'0 0.0
2014-Aug-24 21:26N 34°08' E 135°07'0 0.1
2014-Aug-24 20:05N 34°08' E 135°07'0 0.0
2014-Aug-24 19:32N 34°08' E 135°07'0 0.0
2014-Aug-24 18:29N 34°08' E 135°07'0 0.0
2014-Aug-24 17:32N 34°08' E 135°07'0 0.0
2014-Aug-24 16:32N 34°08' E 135°07'1 0.7
2014-Aug-24 15:33N 34°08' E 135°06'  
Track history (hours):
 
Tides and Currents Weather Stations Pressure Air Temp Water Temp Dewpoint Dewpoint Depression Visibility Wind Speed Wind Dir Waves Ship Positions

New Yoshino

Last reported at 2014-Aug-31 14:10 UTC. Time now 2014-Sep-02 23:57 UTC.
Position N 34°52' E 140°01'.

Length 102 m; draft 4.8 m.

Type: Tanker. MMSI: 431300724.

Date/timePositionNaut miles runAvg speedWind from/ knotsBaromVisibWave heightAir tempDewpointWater temp
2014-Aug-31 14:10N 34°52' E 140°01'812.5
2014-Aug-31 13:30N 34°56' E 140°09'2613.4
2014-Aug-31 11:32N 35°14' E 140°33'1514.7
2014-Aug-31 10:30N 35°26' E 140°44'1415.0
2014-Aug-31 09:33N 35°37' E 140°55'  
2014-Aug-26 12:18N 35°33' E 140°51'911.8
2014-Aug-26 11:34N 35°26' E 140°45'3812.7
2014-Aug-26 08:33N 34°58' E 140°13'1613.9
2014-Aug-26 07:25N 34°49' E 139°57'1613.5
2014-Aug-26 06:15N 34°43' E 139°40'23511.2
2014-Aug-25 09:19N 33°57' E 135°01'912.0
2014-Aug-25 08:33N 34°06' E 135°03'4 0.4
2014-Aug-24 23:29N 34°08' E 135°07'0 0.0
2014-Aug-24 22:20N 34°08' E 135°07'0 0.0
2014-Aug-24 21:26N 34°08' E 135°07'0 0.1
2014-Aug-24 20:05N 34°08' E 135°07'0 0.0
2014-Aug-24 19:32N 34°08' E 135°07'0 0.0
2014-Aug-24 18:29N 34°08' E 135°07'0 0.0
2014-Aug-24 17:32N 34°08' E 135°07'0 0.0
2014-Aug-24 16:32N 34°08' E 135°07'1 0.7
2014-Aug-24 15:33N 34°08' E 135°06'  

Dump ship's entire track history